Tropical Cyclones
[Index]
Main Index Home Page Stock Weather Photos Extreme Storms Discussion Storm News and Storm Chasing Reports Tropical Cyclones / Hurricanes / Typhoons Weather Data and Links Wild Fires / Bushfires Weather Observation Techniques Weather Picture Catalogue Tornado Pictures and Reports Stock Video Footage and DVDs for sale
Season 1979-1980 Tropical Cyclone WILF Track Map
Season 1979-1980 Summaries: [BoM-AU] [JTWC-AU] [JTWC-SIO] [JTWC-SPAC] [JTWC-SH]
<<- Previous TC | BoM 1979-1980 Season | Next TC ->>

click for intensity scale information  Lat/long Grid: Show Hide

 Date Labels: Show Hide

Bureau of Meteorology Tropical Cyclone Data

Name: WILF
Number: 596 / 197980_03

23 Dec 1979 00:00 UTC to 01 Jan 1980 00:00 UTC

    date/time    lat    long    hPa   cat  kts
1979-12-23 00    9.8    94.9   1005                     
1979-12-23 06   10.0    94.7   1004                     
1979-12-23 12   10.2    94.4   1004                     
1979-12-23 18   10.5    94.2   1003                     
1979-12-24 00   10.7    93.9   1003                     
1979-12-24 06   10.9    93.6   1002                     
1979-12-24 12   11.0    93.2   1001                     
1979-12-24 18   11.2    92.7    999                     
1979-12-25 00   11.4    92.2    998                     
1979-12-25 06   11.5    91.8    995    1                
1979-12-25 12   11.6    91.5    990    1                
1979-12-25 18   11.7    91.1    985    2                
1979-12-26 00   11.9    90.8    980    2                
1979-12-26 06   12.2    90.7    980    2                
1979-12-26 12   12.6    90.7    980    2                
1979-12-26 18   13.0    90.8    980    2                
1979-12-27 00   13.4    91.0    980    2                
1979-12-27 06   13.8    91.4    980    2                
1979-12-27 12   14.2    91.8    980    2                
1979-12-27 18   14.6    92.2    979    2                
1979-12-28 00   15.1    92.5    976    2                
1979-12-28 06   15.5    92.7    973    2                
1979-12-28 12   16.0    92.7    973    2                
1979-12-28 18   16.5    92.4    975    2                
1979-12-29 00   16.5    91.8    988    1                
1979-12-29 06   16.4    91.2    989    1                
1979-12-29 12   16.3    90.5    989    1                
1979-12-29 18   16.2    89.9    988    1                
1979-12-30 00   16.2    89.2    988    1                
1979-12-30 06   16.1    88.5    988    1                
1979-12-30 12   16.0    87.7    988    1                
1979-12-30 18   16.0    87.0    988    1                
1979-12-31 00   16.0    86.2    988    1                
1979-12-31 06   16.0    85.2    990    1                
1979-12-31 12   16.0    84.0    991    1                
1979-12-31 18   15.9    82.6    992    1                
1980-01-01 00   16.0    81.2    993    1                
Winds are 10-min average.

Tropical cyclone tracks developed by Michael Bath using data from the Bureau of Meteorology and Google Maps.


[Australian Severe Weather index] [Copyright Notice] [Email Contacts] [Search This Site] [Privacy Policy]
Document: tropical_cyclone_wilf.htm Updated: 30 May 2013